Birmingham-Shuttlesworth International Airport
KBHM : now visible

Airfield :











YOU CAN JOIN US ON...

 
LOGIN :

Register | Disclaimer

   EN    FR    IT 

 









Legend :    VFR   Marginal VFR   IFR   Intensive IFR   Very Intensive IFR
Visi :
Ceiling :
>= 8 km
>= 3000ft
5 to 8 km
1000 to 3000 ft
1500m to 5 km
500 to 1000 ft
800 to 1500m
200 to 500 ft
< 800m
< 200 ft
Symbols :   Thunderstorms  Fog  Heavy snow  Heavy precipitations  Wind > 20 kt






- Airport Elevation : 650 ft
- IATA code : BHM


KBHM - Birmingham-Shuttlesworth International

CURRENT METAR :
  • 110353Z VRB04KT 10SM FEW070 SCT250 27/20 A3007 RMK AO2 LTG DSNT NE SLP173 T02720200

EXPIRED METARs :
  • 110253Z 07005KT 10SM FEW070 BKN250 28/20 A3007 RMK AO2 SLP172 T02780200 53018
  • 110153Z 00000KT 10SM BKN250 29/22 A3004 RMK AO2 SLP162 T02890217

TAF KBHM
Valid from the 11 at 00:00 until the 12 at 00:00 UTC


102340Z 1100/1124 15005KT P6SM FEW025 SCT060 BKN090
FM111500 29005KT P6SM SCT050
PROB30 1118/1124 VRB10G20KT 4SM TSRA OVC035CB
KZTL FIR / North America



MET'MAP, your aeronautical weather chart ! - Copyright ORBIFLY December 2007 - Disclaimer

ORBIFLY MET'MAP TEAM :

Programming & Development : Alexandra Zaïnal
Concept & original design : Baudouin d'Aumeries
Assistance for programming : Marc-Olivier Méhu
Technical & hardware support : Manuel Goepfert

Contact : metmap@orbifly.com




SOURCES & CREDITS :

   NOAA       Earth
Advisory